Time;durP1;ratioP1;P1;durP2;ratioP2;P2;SDS_P1;SDS_P2;PMS_P1;PMS_P2;Temp;Humidity;BMP_temperature;BMP_pressure;BME280_temperature;BME280_humidity;BME280_pressure;Samples;Min_cycle;Max_cycle;Signal;HPM_P1;HPM_P2
2022/01/22 00:02:19;;;;;;;21.67;10.43;;;;;;;-5.60;82.72;97734.72;4792889;29;20141;-59
2022/01/22 00:04:44;;;;;;;25.45;10.95;;;;;;;-5.58;82.96;97727.72;4792153;29;20414;-61
2022/01/22 00:07:10;;;;;;;27.20;12.82;;;;;;;-5.59;82.43;97728.63;4792120;29;20442;-67
2022/01/22 00:09:38;;;;;;;14.02;8.75;;;;;;;-5.46;82.54;97726.41;4791819;29;20412;-66
2022/01/22 00:12:07;;;;;;;20.27;9.02;;;;;;;-5.59;82.40;97729.47;4792105;29;20046;-66
2022/01/22 00:14:31;;;;;;;22.38;8.02;;;;;;;-5.60;82.51;97743.34;4775636;29;20527;-65
2022/01/22 00:16:59;;;;;;;20.75;11.68;;;;;;;-5.58;82.67;97735.50;4775885;29;20518;-64
2022/01/22 00:19:24;;;;;;;23.23;10.95;;;;;;;-5.55;82.58;97738.00;4775361;29;20502;-64
2022/01/22 00:21:50;;;;;;;17.40;10.90;;;;;;;-5.60;82.81;97747.69;4775237;29;20497;-65
2022/01/22 00:24:15;;;;;;;24.73;12.38;;;;;;;-5.62;82.73;97742.56;4775241;29;20062;-67
2022/01/22 00:26:42;;;;;;;17.75;9.05;;;;;;;-5.55;83.07;97746.63;4792000;29;20057;-69
2022/01/22 00:29:08;;;;;;;18.13;10.45;;;;;;;-5.43;82.70;97742.72;4745018;29;20050;-66
2022/01/22 00:31:33;;;;;;;22.13;12.68;;;;;;;-5.43;82.56;97742.72;4792049;29;20092;-67
2022/01/22 00:33:58;;;;;;;19.30;9.38;;;;;;;-5.29;82.78;97753.41;4775290;29;20132;-67
2022/01/22 00:36:23;;;;;;;23.05;11.85;;;;;;;-5.40;82.62;97749.53;4775556;29;20129;-67
2022/01/22 00:38:47;;;;;;;18.85;10.07;;;;;;;-5.31;82.52;97757.00;4760298;29;20098;-67
2022/01/22 00:41:12;;;;;;;25.67;12.82;;;;;;;-5.40;82.46;97746.94;4791879;29;20069;-68
2022/01/22 00:43:37;;;;;;;25.90;11.52;;;;;;;-5.38;82.71;97752.91;4791747;29;20050;-67
2022/01/22 00:46:02;;;;;;;21.75;11.70;;;;;;;-5.34;82.69;97749.31;4774578;29;20477;-66
2022/01/22 00:48:28;;;;;;;22.38;12.77;;;;;;;-5.38;82.86;97758.09;4790630;29;20132;-66
2022/01/22 00:50:56;;;;;;;13.27;7.88;;;;;;;-5.34;82.81;97751.91;4774707;29;20137;-67
2022/01/22 00:53:20;;;;;;;27.38;13.00;;;;;;;-5.22;82.63;97759.22;4759591;29;20497;-68
2022/01/22 00:55:45;;;;;;;34.50;14.52;;;;;;;-5.29;82.43;97757.75;4790939;29;20558;-66
2022/01/22 00:58:10;;;;;;;20.35;10.55;;;;;;;-5.27;82.70;97758.53;4775392;29;20050;-67
2022/01/22 01:00:35;;;;;;;22.95;11.40;;;;;;;-5.28;82.71;97762.88;4790080;29;20054;-68
2022/01/22 01:03:00;;;;;;;19.08;10.90;;;;;;;-5.28;83.06;97765.50;4789450;29;20513;-66
2022/01/22 01:05:25;;;;;;;23.05;12.27;;;;;;;-5.33;83.20;97767.44;4788697;29;20494;-67
2022/01/22 01:07:50;;;;;;;19.35;11.18;;;;;;;-5.31;82.78;97772.56;4773528;29;20054;-68
2022/01/22 01:10:17;;;;;;;19.85;11.77;;;;;;;-5.38;82.86;97774.53;4773890;29;20057;-66
2022/01/22 01:12:42;;;;;;;24.20;12.10;;;;;;;-5.21;83.15;97774.75;4773755;29;20103;-71
2022/01/22 01:15:21;;;;;;;15.68;8.45;;;;;;;-5.20;83.06;97773.84;4773562;29;20102;-68
2022/01/22 01:18:04;;;;;;;21.20;9.88;;;;;;;-5.24;83.07;97779.22;4773399;29;20647;-67
2022/01/22 01:36:36;;;;;;;22.65;12.13;;;;;;;-5.22;81.76;97777.41;4768596;29;20102;-68
2022/01/22 01:39:05;;;;;;;23.85;11.27;;;;;;;-5.21;81.10;97782.56;4771908;29;20053;-67
2022/01/22 01:41:39;;;;;;;20.42;11.27;;;;;;;-5.23;81.19;97778.31;4771717;29;20107;-67
2022/01/22 01:44:05;;;;;;;20.20;11.70;;;;;;;-5.28;81.39;97775.03;4785632;29;20843;-67
2022/01/22 01:46:56;;;;;;;17.60;10.25;;;;;;;-5.22;81.46;97782.59;4787611;29;20149;-67
2022/01/22 01:49:22;;;;;;;22.52;12.55;;;;;;;-5.28;81.16;97775.03;4769787;29;20457;-68
2022/01/22 01:51:47;;;;;;;18.85;10.68;;;;;;;-5.34;81.41;97773.53;4741493;29;20050;-67
2022/01/22 01:54:32;;;;;;;14.15;8.55;;;;;;;-5.23;81.56;97784.34;4771317;29;20042;-68
2022/01/22 01:59:44;;;;;;;8.32;5.35;;;;;;;-5.17;81.33;97780.66;4785155;29;19921;-68
2022/01/22 02:02:12;;;;;;;20.73;11.48;;;;;;;-5.15;81.51;97792.69;4756155;29;20034;-68
2022/01/22 02:04:39;;;;;;;12.13;5.68;;;;;;;-5.09;80.68;97790.78;4755595;29;20050;-64
2022/01/22 02:07:05;;;;;;;20.42;11.95;;;;;;;-5.23;80.78;97799.09;4787555;29;20037;-62
2022/01/22 02:09:37;;;;;;;18.50;8.82;;;;;;;-5.23;81.04;97799.09;4771056;29;20058;-65
2022/01/22 02:12:11;;;;;;;10.30;5.72;;;;;;;-5.27;80.85;97800.09;4770589;29;20069;-65
2022/01/22 02:23:35;;;;;;;13.63;7.70;;;;;;;-5.22;81.10;97809.44;4771689;29;20420;-66
2022/01/22 02:26:01;;;;;;;13.00;7.70;;;;;;;-5.24;80.83;97815.56;4742297;29;20822;-68
2022/01/22 02:28:31;;;;;;;19.55;10.15;;;;;;;-5.22;80.88;97805.97;4772284;29;20107;-66
2022/01/22 02:31:06;;;;;;;17.40;9.70;;;;;;;-5.17;80.55;97802.28;4771885;29;20074;-69
2022/01/22 02:34:09;;;;;;;21.65;9.20;;;;;;;-5.13;80.23;97805.63;4771983;29;20443;-63
2022/01/22 02:37:00;;;;;;;16.67;9.68;;;;;;;-5.30;79.98;97811.44;4772137;29;20387;-63
2022/01/22 02:39:59;;;;;;;21.20;11.05;;;;;;;-5.39;80.61;97806.59;4771975;29;20524;-64
2022/01/22 02:42:11;;;;;;;20.20;10.68;;;;;;;-5.30;81.02;97808.00;4771817;29;20054;-63
2022/01/22 02:44:43;;;;;;;17.80;10.25;;;;;;;-5.35;80.69;97815.13;4756998;29;20506;-64
2022/01/22 02:47:10;;;;;;;17.25;9.32;;;;;;;-5.12;80.29;97807.31;4742535;29;20046;-68
2022/01/22 02:49:36;;;;;;;17.63;9.02;;;;;;;-5.17;80.70;97819.63;4756752;29;20053;-67
2022/01/22 02:52:07;;;;;;;17.48;8.48;;;;;;;-5.18;80.11;97816.19;4771481;29;20639;-65
2022/01/22 02:54:35;;;;;;;13.13;8.00;;;;;;;-5.21;80.29;97818.91;4771615;29;20049;-73
2022/01/22 02:57:00;;;;;;;13.10;7.60;;;;;;;-5.18;79.95;97817.94;4772412;29;20053;-74
2022/01/22 02:59:25;;;;;;;17.95;10.43;;;;;;;-5.35;80.06;97820.31;4757406;29;20525;-66
2022/01/22 03:01:52;;;;;;;13.25;7.93;;;;;;;-5.31;80.37;97827.09;4771517;29;20082;-75
2022/01/22 03:04:19;;;;;;;17.92;8.65;;;;;;;-5.25;80.33;97835.50;4772419;29;20061;-74
2022/01/22 03:06:48;;;;;;;20.67;10.73;;;;;;;-5.28;80.76;97832.16;4788434;29;20042;-73
2022/01/22 03:09:15;;;;;;;20.08;10.45;;;;;;;-5.27;80.33;97831.25;4757099;29;20182;-69
2022/01/22 03:12:00;;;;;;;15.45;8.57;;;;;;;-5.33;80.57;97836.69;4756309;29;20053;-66
2022/01/22 03:27:30;;;;;;;22.83;10.27;;;;;;;-5.23;81.39;97846.69;4718915;30;20092;-66
2022/01/22 03:29:56;;;;;;;22.50;12.23;;;;;;;-5.23;81.23;97853.63;4732035;30;20150;-65
2022/01/22 03:32:21;;;;;;;21.77;11.02;;;;;;;-5.13;81.61;97847.19;4731620;30;20071;-64
2022/01/22 03:34:59;;;;;;;17.15;9.02;;;;;;;-5.19;81.61;97860.41;4702626;30;20047;-63
2022/01/22 03:37:26;;;;;;;16.83;8.05;;;;;;;-5.10;81.27;97861.81;4716686;30;20063;-64
2022/01/22 03:39:51;;;;;;;19.33;10.27;;;;;;;-5.09;81.29;97873.91;4716785;30;20059;-60
2022/01/22 03:42:16;;;;;;;22.42;9.90;;;;;;;-5.14;81.05;97863.66;4717169;30;20063;-59
2022/01/22 03:44:42;;;;;;;18.95;10.05;;;;;;;-5.25;81.32;97871.00;4731594;30;20060;-59
2022/01/22 03:47:07;;;;;;;15.63;8.40;;;;;;;-5.17;81.47;97876.78;4721184;30;20527;-61
2022/01/22 03:49:32;;;;;;;17.80;10.10;;;;;;;-5.11;81.60;97881.75;4739253;30;20447;-66
2022/01/22 03:51:58;;;;;;;6.65;4.78;;;;;;;-4.92;81.12;97884.50;4721513;30;20067;-65
2022/01/22 03:54:23;;;;;;;22.67;11.57;;;;;;;-4.95;79.91;97895.84;4731881;30;20055;-63
2022/01/22 03:56:49;;;;;;;14.25;7.43;;;;;;;-5.00;80.06;97899.53;4701293;30;20618;-64
2022/01/22 03:59:30;;;;;;;14.95;7.25;;;;;;;-5.08;80.77;97892.03;4727579;30;20075;-62
2022/01/22 04:05:02;;;;;;;19.58;10.65;;;;;;;-5.07;79.79;97903.25;4742695;30;20052;-63
2022/01/22 04:10:10;;;;;;;17.83;10.05;;;;;;;-5.01;79.37;97908.22;4748692;30;20085;-63
2022/01/22 04:13:02;;;;;;;12.02;7.05;;;;;;;-5.09;79.86;97905.09;4749131;30;20062;-62
2022/01/22 04:15:29;;;;;;;16.42;9.55;;;;;;;-5.03;79.98;97904.84;4750251;30;20035;-61
2022/01/22 04:26:15;;;;;;;10.85;6.20;;;;;;;-5.02;78.95;97915.19;4777787;29;20065;-63
2022/01/22 11:28:36;;;;;;;32.67;18.25;;;;;;;-3.02;79.56;98457.88;5296773;24;20098;-68
2022/01/22 11:31:03;;;;;;;24.92;12.95;;;;;;;-3.01;79.46;98473.47;4772607;29;20078;-66
2022/01/22 11:33:31;;;;;;;29.27;13.95;;;;;;;-3.02;79.45;98468.31;4773409;29;20638;-66
2022/01/22 11:36:12;;;;;;;27.02;13.52;;;;;;;-2.98;79.53;98478.59;4771975;29;20043;-66
2022/01/22 11:38:40;;;;;;;34.65;17.17;;;;;;;-3.14;79.42;98485.22;4768525;29;20051;-67
2022/01/22 11:41:11;;;;;;;27.58;15.38;;;;;;;-3.18;79.58;98488.00;4769978;29;20054;-67
2022/01/22 11:43:51;;;;;;;24.60;14.23;;;;;;;-3.16;80.16;98488.81;4770080;29;20046;-69
2022/01/22 11:46:26;;;;;;;18.33;10.65;;;;;;;-3.12;80.06;98499.06;4770554;29;20073;-66
2022/01/22 11:49:22;;;;;;;22.52;12.38;;;;;;;-3.09;80.81;98504.19;4738728;29;20074;-66
2022/01/22 11:51:52;;;;;;;27.23;14.35;;;;;;;-3.09;80.92;98505.94;4769467;29;20050;-66
2022/01/22 11:54:19;;;;;;;24.55;15.25;;;;;;;-3.05;80.39;98512.75;4769666;29;20057;-68
2022/01/22 11:56:49;;;;;;;26.42;15.82;;;;;;;-3.06;80.81;98514.50;4769806;29;20562;-68
2022/01/22 11:59:16;;;;;;;31.13;16.38;;;;;;;-3.06;80.63;98519.72;4768327;29;20129;-66
2022/01/22 12:01:51;;;;;;;26.27;15.35;;;;;;;-2.97;80.24;98531.59;4769633;29;20061;-67
2022/01/22 12:04:18;;;;;;;36.90;15.43;;;;;;;-2.92;81.17;98524.44;4769844;29;20133;-66
2022/01/22 12:07:03;;;;;;;26.83;14.27;;;;;;;-2.81;81.31;98542.31;4769772;29;20111;-69
2022/01/22 12:09:42;;;;;;;28.98;15.40;;;;;;;-2.88;80.97;98539.06;4769776;29;20492;-68
2022/01/22 12:15:35;;;;;;;17.02;8.85;;;;;;;-2.69;79.80;98558.38;4768493;29;20047;-67
2022/01/22 12:18:13;;;;;;;35.80;17.95;;;;;;;-2.86;79.30;98560.75;4769643;29;20473;-67
2022/01/22 12:21:30;;;;;;;33.95;16.55;;;;;;;-2.97;79.68;98561.13;4771011;29;20053;-68
2022/01/22 12:23:30;;;;;;;22.80;11.70;;;;;;;-2.87;78.95;98563.41;4772135;29;20093;-69
2022/01/22 12:25:56;;;;;;;28.63;15.52;;;;;;;-2.97;79.08;98568.09;4770332;29;20059;-67
2022/01/22 12:28:42;;;;;;;33.30;15.65;;;;;;;-3.01;78.38;98572.53;4770338;29;20063;-67
2022/01/22 12:31:15;;;;;;;22.15;13.23;;;;;;;-3.09;78.50;98576.31;4770086;29;20046;-68
2022/01/22 12:33:40;;;;;;;29.42;13.07;;;;;;;-3.08;78.05;98581.50;4771997;29;20042;-67
2022/01/22 12:36:24;;;;;;;27.00;14.00;;;;;;;-3.17;78.32;98589.63;4769028;29;20123;-68
2022/01/22 12:39:01;;;;;;;25.27;13.32;;;;;;;-3.27;79.38;98592.59;4777048;29;20046;-68
2022/01/22 12:47:01;;;;;;;26.48;14.02;;;;;;;-3.26;79.09;98602.06;4770751;29;20067;-68
2022/01/22 12:49:28;;;;;;;25.55;14.10;;;;;;;-3.32;79.44;98609.22;4760319;30;20084;-68
2022/01/22 12:51:56;;;;;;;22.92;13.60;;;;;;;-3.31;79.39;98604.84;4763813;30;20047;-68
2022/01/22 12:54:39;;;;;;;28.17;13.88;;;;;;;-3.36;79.72;98615.41;4764874;29;20059;-70
2022/01/22 12:57:10;;;;;;;26.42;14.80;;;;;;;-3.32;80.01;98619.63;4766419;29;20047;-71
2022/01/22 13:00:00;;;;;;;27.00;13.38;;;;;;;-3.43;80.00;98616.50;4767778;29;20047;-70
2022/01/22 13:02:56;;;;;;;22.88;12.90;;;;;;;-3.50;79.66;98624.59;4766390;29;20110;-65
2022/01/22 13:05:23;;;;;;;24.10;11.70;;;;;;;-3.57;80.17;98636.06;4757614;30;20074;-66
2022/01/22 13:07:59;;;;;;;32.20;14.52;;;;;;;-3.51;80.82;98646.31;4766184;29;20051;-65
2022/01/22 13:10:44;;;;;;;28.45;13.73;;;;;;;-3.55;80.84;98642.09;4766761;29;20062;-66
2022/01/22 13:13:14;;;;;;;26.20;14.25;;;;;;;-3.61;81.02;98640.50;4755475;29;20047;-67
2022/01/22 13:15:39;;;;;;;23.00;11.38;;;;;;;-3.51;80.88;98639.38;4754259;29;20070;-67
2022/01/22 13:18:04;;;;;;;19.38;8.77;;;;;;;-3.45;80.56;98646.97;4754422;30;20927;-69
2022/01/22 13:20:32;;;;;;;26.90;14.27;;;;;;;-3.53;80.80;98651.56;4754239;29;20474;-69
2022/01/22 13:23:01;;;;;;;26.50;13.02;;;;;;;-3.56;80.63;98649.06;4738056;30;20066;-71
2022/01/22 13:25:27;;;;;;;19.55;11.73;;;;;;;-3.52;80.60;98648.06;4754585;30;20423;-69
2022/01/22 13:28:07;;;;;;;29.63;14.95;;;;;;;-3.59;80.65;98654.34;4754232;30;20119;-71
2022/01/22 13:30:40;;;;;;;23.48;13.25;;;;;;;-3.66;81.34;98666.72;4754105;30;20051;-71
2022/01/22 13:33:20;;;;;;;18.25;10.25;;;;;;;-3.63;81.30;98660.56;4769316;29;20050;-70
2022/01/22 13:38:52;;;;;;;24.27;13.18;;;;;;;-3.57;81.97;98669.94;4772407;29;20054;-70
2022/01/22 13:49:33;;;;;;;25.33;14.07;;;;;;;-3.46;81.76;98681.75;4770252;29;20061;-67
2022/01/22 13:52:05;;;;;;;24.75;13.02;;;;;;;-3.44;81.71;98684.31;4771708;29;20053;-67
2022/01/22 13:54:32;;;;;;;24.05;12.48;;;;;;;-3.42;82.02;98688.56;4755050;29;20579;-67
2022/01/22 13:57:03;;;;;;;22.08;12.23;;;;;;;-3.32;82.37;98703.03;4769824;29;20184;-66
2022/01/22 13:59:31;;;;;;;27.88;15.10;;;;;;;-3.35;82.56;98708.31;4770321;29;20047;-71
2022/01/22 14:04:55;;;;;;;31.50;15.63;;;;;;;-3.34;82.33;98724.81;4771167;29;20074;-70
2022/01/22 14:07:24;;;;;;;20.80;11.68;;;;;;;-3.42;82.34;98727.66;4770659;29;20089;-70
2022/01/22 14:09:51;;;;;;;30.30;14.23;;;;;;;-3.43;81.94;98733.75;4771179;29;20890;-67
2022/01/22 14:12:44;;;;;;;23.83;12.50;;;;;;;-3.46;82.87;98731.25;4770878;29;20054;-69
2022/01/22 14:18:27;;;;;;;22.48;12.75;;;;;;;-3.43;82.55;98740.72;4770975;29;20134;-67
2022/01/22 14:20:53;;;;;;;25.15;12.90;;;;;;;-3.40;83.42;98751.91;4770741;29;20043;-68
2022/01/22 14:23:24;;;;;;;33.55;16.40;;;;;;;-3.39;82.54;98758.84;4769685;29;20425;-68
2022/01/22 14:26:01;;;;;;;26.65;15.13;;;;;;;-3.32;83.24;98764.72;4769371;29;20094;-68
2022/01/22 14:28:46;;;;;;;27.05;15.15;;;;;;;-3.40;83.13;98761.50;4769115;29;20070;-68
2022/01/22 14:31:33;;;;;;;27.85;16.13;;;;;;;-3.45;82.68;98769.44;4770433;29;20046;-68
2022/01/22 14:34:00;;;;;;;27.92;13.82;;;;;;;-3.47;82.82;98760.78;4754280;29;20043;-68
2022/01/22 14:36:33;;;;;;;24.58;12.13;;;;;;;-3.36;82.70;98771.75;4770147;29;20051;-68
2022/01/22 14:39:16;;;;;;;29.40;14.85;;;;;;;-3.37;82.83;98774.41;4770623;29;20462;-69
2022/01/22 14:44:54;;;;;;;29.63;16.00;;;;;;;-3.35;82.68;98786.50;4753608;29;20049;-68
2022/01/22 14:47:28;;;;;;;25.40;14.80;;;;;;;-3.31;83.07;98782.06;4770874;29;20881;-70
2022/01/22 14:50:05;;;;;;;32.80;16.33;;;;;;;-3.28;83.22;98784.59;4770090;29;20502;-68
2022/01/22 14:52:30;;;;;;;28.80;16.30;;;;;;;-3.22;82.10;98796.56;4769728;29;20594;-69
2022/01/22 14:54:57;;;;;;;28.00;15.30;;;;;;;-3.20;81.99;98795.63;4770464;29;20498;-69
2022/01/22 14:57:24;;;;;;;28.88;16.73;;;;;;;-3.31;82.09;98803.75;4769789;29;20422;-70
2022/01/22 14:59:49;;;;;;;31.67;15.85;;;;;;;-3.32;82.51;98802.06;4770171;29;20051;-69
2022/01/22 15:02:16;;;;;;;26.15;15.00;;;;;;;-3.30;82.28;98802.88;4753659;29;20042;-69
2022/01/22 15:04:40;;;;;;;18.83;10.18;;;;;;;-3.14;82.75;98810.22;4769959;29;20054;-69
2022/01/22 15:07:08;;;;;;;28.05;14.75;;;;;;;-3.19;81.77;98812.97;4769761;29;20051;-69
2022/01/22 15:09:34;;;;;;;27.38;13.35;;;;;;;-3.12;81.99;98818.84;4753955;29;20503;-69
2022/01/22 15:12:02;;;;;;;29.40;14.93;;;;;;;-3.20;81.56;98826.91;4769377;29;20112;-68
2022/01/22 15:14:29;;;;;;;27.85;14.63;;;;;;;-3.19;81.48;98822.53;4769744;29;20052;-68
2022/01/22 15:19:35;;;;;;;31.45;18.08;;;;;;;-3.16;81.37;98827.69;4767601;29;20454;-68
2022/01/22 15:22:00;;;;;;;34.15;17.52;;;;;;;-3.23;81.35;98826.13;4769941;29;20046;-68
2022/01/22 15:24:26;;;;;;;33.03;15.32;;;;;;;-3.27;81.28;98835.78;4770227;29;20055;-68
2022/01/22 15:26:51;;;;;;;29.88;15.55;;;;;;;-3.27;81.46;98829.75;4769831;29;20138;-71
2022/01/22 15:29:23;;;;;;;31.58;16.98;;;;;;;-3.40;81.90;98830.09;4769867;29;20161;-68
2022/01/22 15:35:00;;;;;;;27.35;13.13;;;;;;;-3.17;82.02;98849.44;4769618;29;20042;-69
2022/01/22 15:37:26;;;;;;;43.67;19.90;;;;;;;-3.16;81.45;98838.94;4769422;29;20061;-68
2022/01/22 15:39:50;;;;;;;35.58;19.20;;;;;;;-3.29;81.19;98848.03;4769340;29;20046;-69
2022/01/22 15:42:17;;;;;;;31.02;18.00;;;;;;;-3.30;81.51;98846.31;4768385;29;20050;-69
2022/01/22 15:44:42;;;;;;;40.13;18.17;;;;;;;-3.41;81.28;98854.44;4768791;29;20085;-69
2022/01/22 15:47:07;;;;;;;42.22;19.52;;;;;;;-3.42;82.59;98860.53;4768225;29;20091;-68
2022/01/22 15:49:32;;;;;;;40.33;22.55;;;;;;;-3.28;82.72;98867.13;4767933;29;20047;-68
2022/01/22 15:52:01;;;;;;;35.97;17.20;;;;;;;-3.24;81.87;98877.41;4766665;29;20058;-69
2022/01/22 15:54:32;;;;;;;32.72;15.50;;;;;;;-3.09;81.54;98886.53;4767561;29;20047;-69
2022/01/22 15:56:59;;;;;;;42.35;20.10;;;;;;;-3.11;81.18;98886.59;4767839;29;20090;-68
2022/01/22 15:59:25;;;;;;;41.13;21.23;;;;;;;-3.22;80.71;98882.56;4767901;29;20095;-69
2022/01/22 16:02:16;;;;;;;39.10;18.48;;;;;;;-3.26;81.94;98894.81;4764430;29;20070;-68
2022/01/22 16:04:49;;;;;;;38.13;17.17;;;;;;;-3.35;81.30;98895.94;4768005;29;20086;-68
2022/01/22 16:07:23;;;;;;;38.00;18.70;;;;;;;-3.30;81.98;98894.06;4765459;29;20673;-69
2022/01/22 16:09:50;;;;;;;48.25;22.90;;;;;;;-3.24;82.35;98902.59;4769808;29;20054;-67
2022/01/22 16:12:15;;;;;;;37.13;17.67;;;;;;;-3.19;81.66;98908.56;4769768;29;20091;-69
2022/01/22 16:14:40;;;;;;;33.00;15.70;;;;;;;-3.10;81.76;98913.50;4768749;29;20062;-69
2022/01/22 16:17:06;;;;;;;46.80;22.83;;;;;;;-3.25;80.67;98911.31;4769775;29;20054;-68
2022/01/22 16:19:35;;;;;;;37.92;19.55;;;;;;;-3.30;81.33;98914.06;4768206;29;20047;-69
2022/01/22 16:22:01;;;;;;;39.28;20.73;;;;;;;-3.28;81.41;98908.81;4769454;29;20062;-68
2022/01/22 16:24:28;;;;;;;30.65;15.50;;;;;;;-3.25;82.08;98916.53;4769495;29;20506;-69
2022/01/22 16:26:53;;;;;;;39.10;20.77;;;;;;;-3.14;81.03;98917.09;4769449;29;20100;-68
2022/01/22 16:29:17;;;;;;;22.65;12.50;;;;;;;-3.11;81.30;98914.41;4767939;29;20153;-68
2022/01/22 16:31:46;;;;;;;37.17;19.48;;;;;;;-3.28;81.27;98920.09;4770339;29;20139;-70
2022/01/22 16:34:12;;;;;;;25.63;13.45;;;;;;;-3.14;81.57;98930.13;4772844;29;20047;-68
2022/01/22 16:36:37;;;;;;;36.08;17.17;;;;;;;-3.18;81.61;98936.34;4772939;29;20521;-69
2022/01/22 16:39:05;;;;;;;34.85;16.98;;;;;;;-3.17;81.41;98932.84;4773916;29;20459;-68
2022/01/22 16:41:31;;;;;;;42.47;22.30;;;;;;;-3.17;80.70;98943.25;4773060;29;20103;-66
2022/01/22 16:43:59;;;;;;;37.15;20.38;;;;;;;-3.31;80.77;98949.69;4773530;29;20191;-68
2022/01/22 16:46:33;;;;;;;38.40;20.27;;;;;;;-3.25;81.29;98951.28;4774049;29;20049;-68
2022/01/22 16:54:49;;;;;;;38.05;18.70;;;;;;;-3.34;80.85;98952.38;4753068;29;20098;-68
2022/01/22 16:57:20;;;;;;;32.15;16.83;;;;;;;-3.34;81.11;98964.56;4737872;30;20075;-68
2022/01/22 16:59:51;;;;;;;32.92;18.17;;;;;;;-3.39;82.13;98958.63;4752800;30;20050;-68
2022/01/22 17:02:18;;;;;;;31.10;17.85;;;;;;;-3.42;81.65;98967.38;4737526;30;20051;-68
2022/01/22 17:04:49;;;;;;;43.65;21.52;;;;;;;-3.35;81.78;98962.84;4752453;29;20105;-67
2022/01/22 17:08:28;;;;;;;37.08;18.60;;;;;;;-3.32;81.55;98971.44;4752237;30;20058;-68
2022/01/22 17:11:00;;;;;;;39.35;19.80;;;;;;;-3.34;81.70;98988.00;4744421;30;20055;-68
2022/01/22 17:15:45;;;;;;;39.22;18.75;;;;;;;-3.31;81.74;98988.78;4752366;29;20051;-65
2022/01/22 17:18:10;;;;;;;36.50;19.08;;;;;;;-3.32;82.02;99005.31;4737003;30;20059;-66
2022/01/22 17:20:36;;;;;;;36.47;18.50;;;;;;;-3.40;81.74;99002.06;4752064;30;20043;-67
2022/01/22 17:23:04;;;;;;;33.67;17.65;;;;;;;-3.23;82.08;99005.97;4751678;30;20054;-65
2022/01/22 17:25:30;;;;;;;40.85;20.15;;;;;;;-3.30;82.09;99007.91;4737226;30;20103;-67
2022/01/22 17:27:55;;;;;;;33.00;15.23;;;;;;;-3.35;82.13;99018.44;4751738;30;20069;-66
2022/01/22 17:33:09;;;;;;;34.80;16.00;;;;;;;-3.16;81.39;99013.56;4771986;29;20157;-66
2022/01/22 17:35:36;;;;;;;39.33;20.27;;;;;;;-3.24;81.31;99019.91;4771790;29;20134;-67
2022/01/22 17:38:01;;;;;;;37.70;19.77;;;;;;;-3.35;81.38;99030.59;4771090;29;20112;-74
2022/01/22 17:40:27;;;;;;;31.77;15.25;;;;;;;-3.37;81.37;99022.81;4755475;29;20050;-71
2022/01/22 17:42:53;;;;;;;36.88;16.10;;;;;;;-3.33;81.94;99034.88;4771171;29;20417;-70
2022/01/22 17:45:20;;;;;;;32.75;18.48;;;;;;;-3.30;81.19;99036.56;4771770;29;20111;-72
2022/01/22 17:47:46;;;;;;;33.97;17.90;;;;;;;-3.42;81.43;99035.13;4771415;29;20108;-70
2022/01/22 17:50:12;;;;;;;37.00;18.50;;;;;;;-3.47;81.58;99043.94;4771813;29;20554;-73
2022/01/22 17:52:38;;;;;;;39.03;21.05;;;;;;;-3.38;82.13;99041.94;4773145;29;20095;-74
2022/01/22 17:55:08;;;;;;;39.33;20.88;;;;;;;-3.47;81.88;99047.38;4772302;29;20046;-73
2022/01/22 17:57:33;;;;;;;37.63;20.85;;;;;;;-3.46;81.41;99051.72;4769802;29;20051;-71
2022/01/22 17:59:58;;;;;;;34.20;17.30;;;;;;;-3.41;82.04;99054.22;4771816;29;20050;-72
2022/01/22 18:02:27;;;;;;;28.67;13.40;;;;;;;-3.39;82.19;99050.69;4772191;29;20043;-71
2022/01/22 18:04:59;;;;;;;37.67;18.58;;;;;;;-3.43;82.40;99050.78;4771161;29;20582;-71
2022/01/22 18:07:53;;;;;;;37.65;20.92;;;;;;;-3.47;82.50;99054.34;4768612;29;20051;-75
2022/01/22 18:10:24;;;;;;;41.28;19.85;;;;;;;-3.40;81.84;99055.94;4770151;29;20100;-75
2022/01/22 18:12:48;;;;;;;39.97;20.15;;;;;;;-3.48;82.62;99061.31;4770098;29;20062;-71
2022/01/22 18:15:13;;;;;;;32.17;17.48;;;;;;;-3.51;82.69;99061.41;4771049;29;20070;-72
2022/01/22 18:17:39;;;;;;;36.83;19.35;;;;;;;-3.41;82.07;99065.50;4770469;29;20061;-70
2022/01/22 18:20:06;;;;;;;40.28;17.58;;;;;;;-3.32;82.85;99075.69;4770814;29;20078;-70
2022/01/22 18:22:32;;;;;;;43.05;19.85;;;;;;;-3.39;82.56;99068.94;4770518;29;20058;-73
2022/01/22 18:24:58;;;;;;;36.33;17.85;;;;;;;-3.43;82.54;99071.63;4770255;29;20043;-72
2022/01/22 18:27:23;;;;;;;39.78;19.90;;;;;;;-3.49;82.94;99083.03;4769543;29;20051;-71
2022/01/22 18:29:48;;;;;;;38.95;22.33;;;;;;;-3.40;83.23;99085.47;4769829;29;20123;-72
2022/01/22 18:32:15;;;;;;;39.47;20.77;;;;;;;-3.41;83.12;99083.75;4770336;29;20115;-70
2022/01/22 18:34:41;;;;;;;33.60;19.20;;;;;;;-3.45;82.92;99092.50;4770883;29;20425;-71
2022/01/22 18:37:09;;;;;;;30.13;15.73;;;;;;;-3.40;83.28;99090.66;4768914;29;20046;-70
2022/01/22 18:39:34;;;;;;;45.30;21.88;;;;;;;-3.40;83.34;99093.28;4770421;29;20082;-71
2022/01/22 18:42:02;;;;;;;34.30;19.48;;;;;;;-3.46;83.36;99089.94;4752293;29;20380;-70
2022/01/22 18:44:28;;;;;;;41.35;20.25;;;;;;;-3.33;83.11;99087.00;4754070;29;20119;-74
2022/01/22 18:46:53;;;;;;;40.55;21.10;;;;;;;-3.43;82.84;99095.09;4770319;29;20046;-72
2022/01/22 18:49:20;;;;;;;33.60;16.20;;;;;;;-3.42;82.68;99102.88;4767376;29;20050;-75
2022/01/22 18:51:50;;;;;;;44.88;22.88;;;;;;;-3.46;82.88;99097.75;4770336;29;20096;-72
2022/01/22 18:54:20;;;;;;;46.58;21.58;;;;;;;-3.54;83.00;99113.56;4769329;29;20046;-72
2022/01/22 18:56:46;;;;;;;36.72;20.42;;;;;;;-3.57;83.24;99120.59;4753784;29;20808;-70
2022/01/22 18:59:12;;;;;;;39.45;20.52;;;;;;;-3.53;82.90;99124.84;4767471;29;20142;-69
2022/01/22 19:01:40;;;;;;;37.40;17.63;;;;;;;-3.54;83.08;99128.34;4769524;29;20514;-70
2022/01/22 19:04:15;;;;;;;31.17;14.93;;;;;;;-3.33;83.28;99122.63;4770171;29;20422;-71
2022/01/22 19:06:41;;;;;;;39.83;21.75;;;;;;;-3.45;82.86;99138.56;4768389;29;20047;-64
2022/01/22 19:09:07;;;;;;;43.72;19.80;;;;;;;-3.44;82.78;99137.66;4768838;29;20058;-64
2022/01/22 19:11:35;;;;;;;38.80;19.75;;;;;;;-3.51;83.20;99136.97;4770129;29;20537;-63
2022/01/22 19:14:01;;;;;;;36.33;20.33;;;;;;;-3.51;83.17;99138.72;4770526;29;20054;-63
2022/01/22 19:16:27;;;;;;;32.53;17.92;;;;;;;-3.54;82.71;99139.63;4769572;29;20043;-63
2022/01/22 19:18:51;;;;;;;50.47;22.83;;;;;;;-3.50;82.67;99136.03;4769777;29;20050;-67
2022/01/22 19:21:22;;;;;;;47.30;21.80;;;;;;;-3.36;83.13;99139.19;4769723;29;20047;-73
2022/01/22 19:23:58;;;;;;;27.65;15.55;;;;;;;-3.38;83.09;99154.00;4769224;29;20077;-74
2022/01/22 19:26:41;;;;;;;34.42;15.57;;;;;;;-3.40;82.42;99153.22;4768842;29;20055;-63
2022/01/22 19:29:08;;;;;;;34.58;18.15;;;;;;;-3.40;82.91;99153.22;4768741;29;20157;-63
2022/01/22 19:31:35;;;;;;;17.83;9.35;;;;;;;-3.23;82.82;99164.97;4770172;29;20047;-62
2022/01/22 19:34:01;;;;;;;38.22;17.50;;;;;;;-3.26;82.44;99165.91;4770237;29;20108;-62
2022/01/22 19:36:29;;;;;;;39.10;17.65;;;;;;;-3.23;81.92;99175.41;4770333;29;20053;-62
2022/01/22 19:38:56;;;;;;;29.13;17.63;;;;;;;-3.36;82.27;99180.03;4768755;29;20103;-62
2022/01/22 19:41:25;;;;;;;36.97;16.45;;;;;;;-3.34;81.96;99186.94;4769728;29;20060;-62
2022/01/22 19:43:58;;;;;;;26.50;12.02;;;;;;;-3.22;82.67;99177.97;4769218;29;20091;-62
2022/01/22 19:46:24;;;;;;;27.08;13.77;;;;;;;-3.19;81.83;99182.25;4772146;29;20061;-62
2022/01/22 19:48:48;;;;;;;33.05;18.50;;;;;;;-3.32;81.48;99190.38;4774006;29;20049;-62
2022/01/22 19:51:15;;;;;;;29.13;16.48;;;;;;;-3.40;82.19;99196.66;4773208;29;20050;-63
2022/01/22 19:53:40;;;;;;;31.15;16.10;;;;;;;-3.35;82.08;99190.44;4772644;29;20574;-63
2022/01/22 19:56:05;;;;;;;26.33;14.07;;;;;;;-3.35;82.62;99200.84;4770344;29;20700;-62
2022/01/22 19:58:30;;;;;;;32.65;15.50;;;;;;;-3.30;82.78;99195.56;4769924;29;20120;-62
2022/01/22 20:00:55;;;;;;;31.23;16.27;;;;;;;-3.35;83.05;99198.25;4769346;29;20514;-61
2022/01/22 20:03:22;;;;;;;30.67;16.80;;;;;;;-3.34;82.75;99215.59;4769617;29;20581;-62
2022/01/22 20:05:47;;;;;;;28.95;16.83;;;;;;;-3.27;83.28;99215.47;4770402;29;20459;-62
2022/01/22 20:08:19;;;;;;;26.85;14.90;;;;;;;-3.26;83.39;99227.59;4773157;29;20047;-61
2022/01/22 20:10:46;;;;;;;26.50;15.77;;;;;;;-3.18;83.08;99223.94;4773033;29;20514;-62
2022/01/22 20:13:11;;;;;;;35.00;17.98;;;;;;;-3.12;82.80;99222.94;4771775;29;20062;-62